Time;durP1;ratioP1;P1;durP2;ratioP2;P2;SDS_P1;SDS_P2;PMS_P1;PMS_P2;Temp;Humidity;BMP_temperature;BMP_pressure;BME280_temperature;BME280_humidity;BME280_pressure;Samples;Min_cycle;Max_cycle;Signal;HPM_P1;HPM_P2
2023/04/05 00:01:10;;;;;;;10.52;6.03;;;2.00;99.90;;;;;;5053809;28;20049;-74
2023/04/05 00:03:36;;;;;;;10.48;7.05;;;1.90;1.00;;;;;;5054307;28;20470;-74
2023/04/05 00:06:04;;;;;;;8.13;6.13;;;1.90;1.00;;;;;;5053837;28;20025;-74
2023/04/05 00:08:30;;;;;;;11.10;7.03;;;1.80;1.00;;;;;;5054470;28;20470;-75
2023/04/05 00:10:55;;;;;;;10.95;7.32;;;1.80;21.40;;;;;;5054410;28;20028;-74
2023/04/05 00:13:21;;;;;;;8.70;6.80;;;1.80;82.10;;;;;;5054329;28;20487;-74
2023/04/05 00:15:48;;;;;;;13.38;7.55;;;1.70;99.90;;;;;;5054892;28;20043;-74
2023/04/05 00:18:22;;;;;;;11.63;7.55;;;1.70;99.90;;;;;;5054922;28;20025;-74
2023/04/05 00:20:48;;;;;;;11.45;6.93;;;1.60;99.90;;;;;;5054710;28;20029;-74
2023/04/05 00:23:15;;;;;;;14.05;7.38;;;1.60;99.90;;;;;;5054132;28;20115;-75
2023/04/05 00:25:42;;;;;;;11.13;7.57;;;1.50;99.90;;;;;;5054620;28;20445;-74
2023/04/05 00:28:07;;;;;;;10.07;7.47;;;1.50;99.90;;;;;;5054619;28;20133;-74
2023/04/05 00:30:33;;;;;;;12.52;8.43;;;1.50;99.90;;;;;;5054085;28;20103;-74
2023/04/05 00:32:58;;;;;;;12.43;8.10;;;1.40;99.90;;;;;;5054318;28;20456;-74
2023/04/05 00:35:26;;;;;;;14.10;7.78;;;1.40;99.90;;;;;;5053783;28;20025;-74
2023/04/05 00:37:52;;;;;;;9.38;7.32;;;1.30;99.90;;;;;;5053938;28;20092;-74
2023/04/05 00:40:18;;;;;;;10.73;7.32;;;1.30;99.90;;;;;;5053498;28;20037;-74
2023/04/05 00:42:43;;;;;;;14.55;8.57;;;1.20;99.90;;;;;;5054305;28;20383;-74
2023/04/05 00:45:09;;;;;;;14.95;8.45;;;1.30;99.90;;;;;;5054027;28;20028;-75
2023/04/05 00:47:35;;;;;;;15.75;8.30;;;1.30;99.90;;;;;;5053855;28;20032;-74
2023/04/05 00:50:01;;;;;;;10.52;7.53;;;1.40;99.90;;;;;;5053923;28;20029;-74
2023/04/05 00:52:28;;;;;;;11.75;8.07;;;1.70;99.90;;;;;;5053828;28;20386;-74
2023/04/05 00:54:53;;;;;;;12.02;7.78;;;1.90;44.20;;;;;;5054024;28;20029;-74
2023/04/05 00:57:19;;;;;;;12.27;7.22;;;2.00;1.00;;;;;;5054042;28;20036;-74
2023/04/05 00:59:45;;;;;;;10.90;7.38;;;2.00;1.00;;;;;;5053234;28;20025;-73
2023/04/05 01:02:27;;;;;;;12.05;7.93;;;2.00;99.90;;;;;;5053890;28;20075;-75
2023/04/05 01:04:59;;;;;;;10.80;7.40;;;1.90;99.90;;;;;;5054197;28;20400;-74
2023/04/05 01:07:34;;;;;;;11.65;8.15;;;1.70;99.90;;;;;;5053239;28;20025;-74
2023/04/05 01:10:03;;;;;;;15.02;8.82;;;1.50;1.00;;;;;;5053923;28;20092;-75
2023/04/05 01:12:31;;;;;;;14.60;8.88;;;1.30;96.60;;;;;;5053499;28;20083;-74
2023/04/05 01:14:58;;;;;;;15.55;8.85;;;1.10;99.90;;;;;;5053688;28;20029;-75
2023/04/05 01:17:27;;;;;;;13.85;9.35;;;1.00;1.00;;;;;;5053691;28;20439;-74
2023/04/05 01:19:57;;;;;;;16.05;9.80;;;0.90;1.00;;;;;;5054000;28;20436;-74
2023/04/05 01:22:46;;;;;;;17.15;10.07;;;1.10;1.00;;;;;;5053640;28;20536;-73
2023/04/05 01:28:12;;;;;;;17.80;10.35;;;1.50;99.90;;;;;;5089072;27;1865956;-73
2023/04/05 01:30:41;;;;;;;14.93;9.07;;;1.90;1.00;;;;;;5132137;28;20465;-73
2023/04/05 01:33:46;;;;;;;15.73;9.30;;;1.60;24.30;;;;;;5132373;28;20034;-73
2023/04/05 01:36:22;;;;;;;15.35;9.15;;;1.60;92.50;;;;;;5132249;28;20036;-73
2023/04/05 01:38:49;;;;;;;17.83;10.20;;;1.70;1.00;;;;;;5132354;28;20070;-74
2023/04/05 01:41:15;;;;;;;21.15;11.70;;;1.80;1.00;;;;;;5132007;28;20372;-73
2023/04/05 01:43:41;;;;;;;17.73;10.57;;;1.90;99.90;;;;;;5132645;28;20039;-73
2023/04/05 01:46:06;;;;;;;17.65;9.65;;;2.00;99.90;;;;;;5132374;28;20027;-73
2023/04/05 01:48:32;;;;;;;16.50;9.10;;;1.70;99.90;;;;;;5132405;28;20072;-74
2023/04/05 01:50:57;;;;;;;16.27;9.38;;;1.40;1.00;;;;;;5132178;28;20023;-73
2023/04/05 01:53:24;;;;;;;14.70;9.23;;;1.00;99.90;;;;;;5132064;28;20027;-73
2023/04/05 01:55:50;;;;;;;15.27;9.60;;;0.80;99.90;;;;;;5132409;28;20023;-73
2023/04/05 01:58:15;;;;;;;17.80;10.25;;;0.60;99.90;;;;;;5132027;28;20034;-73
2023/04/05 02:00:41;;;;;;;17.25;10.40;;;0.50;99.90;;;;;;5131920;28;20027;-74
2023/04/05 02:03:06;;;;;;;17.20;10.18;;;0.40;1.00;;;;;;5132030;28;20028;-73
2023/04/05 02:05:32;;;;;;;15.20;10.32;;;0.30;1.00;;;;;;5131168;28;20070;-74
2023/04/05 02:07:57;;;;;;;20.73;11.55;;;0.30;1.00;;;;;;5131763;28;20122;-73
2023/04/05 02:10:23;;;;;;;15.88;10.65;;;0.20;1.00;;;;;;5131477;28;20107;-73
2023/04/05 02:12:49;;;;;;;19.88;10.38;;;0.20;1.00;;;;;;5131764;28;20435;-74
2023/04/05 02:15:15;;;;;;;18.08;10.15;;;0.10;1.00;;;;;;5131607;28;20102;-73
2023/04/05 02:17:44;;;;;;;15.70;10.43;;;0.00;1.00;;;;;;5131808;28;20036;-73
2023/04/05 02:20:13;;;;;;;16.75;9.63;;;0.00;1.00;;;;;;5131921;28;20110;-73
2023/04/05 02:22:39;;;;;;;17.23;10.75;;;0.00;1.00;;;;;;5131922;28;20145;-74
2023/04/05 02:25:07;;;;;;;14.90;9.55;;;-0.10;1.00;;;;;;5131837;28;20142;-74
2023/04/05 02:27:33;;;;;;;15.98;9.35;;;-0.20;1.00;;;;;;5130656;28;20557;-73
2023/04/05 02:29:59;;;;;;;13.88;9.18;;;-0.20;1.00;;;;;;5131074;28;20027;-73
2023/04/05 02:32:24;;;;;;;18.30;10.98;;;-0.30;1.00;;;;;;5131359;28;20080;-74
2023/04/05 02:34:51;;;;;;;17.75;10.93;;;-0.30;1.00;;;;;;5131051;28;20061;-73
2023/04/05 02:37:17;;;;;;;16.77;10.70;;;-0.30;1.00;;;;;;5129241;28;20033;-73
2023/04/05 02:39:43;;;;;;;17.58;11.38;;;-0.40;1.00;;;;;;5117514;28;20110;-73
2023/04/05 02:42:08;;;;;;;18.20;10.93;;;-0.40;1.00;;;;;;5117681;28;20114;-74
2023/04/05 02:44:34;;;;;;;19.48;11.43;;;-0.40;1.00;;;;;;5117134;28;20429;-73
2023/04/05 02:46:59;;;;;;;19.88;10.63;;;-0.50;1.00;;;;;;5116208;28;20028;-73
2023/04/05 02:49:25;;;;;;;14.93;10.88;;;-0.50;1.00;;;;;;5116874;28;20028;-73
2023/04/05 02:51:50;;;;;;;19.08;10.77;;;-0.60;1.00;;;;;;5116707;28;20392;-73
2023/04/05 02:54:16;;;;;;;16.20;10.77;;;-0.60;1.00;;;;;;5116844;28;20024;-73
2023/04/05 02:56:41;;;;;;;17.55;11.27;;;-0.60;1.00;;;;;;5117167;28;20020;-73
2023/04/05 02:59:07;;;;;;;16.58;11.35;;;-0.60;1.00;;;;;;5117532;28;20091;-73
2023/04/05 03:01:35;;;;;;;16.17;10.98;;;-0.70;1.00;;;;;;5116774;28;20031;-73
2023/04/05 03:04:01;;;;;;;16.85;10.90;;;-0.70;1.00;;;;;;5117106;28;20114;-73
2023/04/05 03:06:26;;;;;;;20.60;11.45;;;-0.70;1.00;;;;;;5117094;28;20166;-73
2023/04/05 03:08:52;;;;;;;19.40;11.52;;;-0.70;1.00;;;;;;5117192;28;20020;-73
2023/04/05 03:11:18;;;;;;;22.95;12.65;;;-0.70;1.00;;;;;;5117028;28;20068;-73
2023/04/05 03:13:44;;;;;;;20.35;11.60;;;-0.80;1.00;;;;;;5116542;28;20031;-73
2023/04/05 03:16:09;;;;;;;20.58;12.82;;;-0.70;1.00;;;;;;5116662;28;20368;-73
2023/04/05 03:18:35;;;;;;;23.08;12.48;;;-0.70;1.00;;;;;;5116383;28;20019;-73
2023/04/05 03:21:01;;;;;;;19.90;13.63;;;-0.70;2.60;;;;;;5116634;28;20027;-72
2023/04/05 03:23:28;;;;;;;20.33;12.73;;;-0.70;11.80;;;;;;5116237;28;20053;-72
2023/04/05 03:26:00;;;;;;;20.90;12.18;;;-0.70;13.40;;;;;;5116335;28;20027;-72
2023/04/05 03:28:26;;;;;;;18.70;12.13;;;-0.80;13.30;;;;;;5116520;28;20437;-72
2023/04/05 03:30:51;;;;;;;19.38;12.43;;;-0.80;12.70;;;;;;5116421;28;20066;-72
2023/04/05 03:33:18;;;;;;;20.70;12.10;;;-0.80;11.20;;;;;;5116615;28;20024;-73
2023/04/05 03:35:44;;;;;;;18.48;12.45;;;-0.90;8.40;;;;;;5116334;28;20524;-73
2023/04/05 03:38:09;;;;;;;18.30;11.50;;;-0.90;8.50;;;;;;5116326;28;20107;-73
2023/04/05 03:40:35;;;;;;;23.13;13.60;;;-1.00;10.80;;;;;;5116232;28;20354;-73
2023/04/05 03:43:00;;;;;;;19.45;12.80;;;-1.00;13.10;;;;;;5115954;28;20035;-72
2023/04/05 03:45:28;;;;;;;19.85;11.80;;;-1.00;16.00;;;;;;5116133;28;20024;-73
2023/04/05 03:47:54;;;;;;;17.05;11.20;;;-1.10;16.30;;;;;;5115281;28;20161;-73
2023/04/05 03:50:19;;;;;;;19.73;12.48;;;-1.10;16.40;;;;;;5114772;28;20099;-73
2023/04/05 03:52:45;;;;;;;19.38;12.13;;;-1.20;18.50;;;;;;5115946;28;20028;-72
2023/04/05 03:55:12;;;;;;;21.58;12.85;;;-1.20;21.00;;;;;;5115801;28;20038;-72
2023/04/05 03:57:38;;;;;;;20.23;13.15;;;-1.20;23.10;;;;;;5115461;28;20019;-72
2023/04/05 04:00:13;;;;;;;19.27;12.07;;;-1.20;25.40;;;;;;5115555;28;20035;-73
2023/04/05 04:02:42;;;;;;;24.17;13.35;;;-1.30;27.30;;;;;;5115689;28;20058;-73
2023/04/05 04:05:08;;;;;;;20.25;13.18;;;-1.30;28.90;;;;;;5115531;28;20024;-73
2023/04/05 04:07:33;;;;;;;21.88;12.93;;;-1.30;32.30;;;;;;5115748;28;20080;-73
2023/04/05 04:09:59;;;;;;;21.95;13.02;;;-1.30;35.70;;;;;;5115373;28;20031;-73
2023/04/05 04:12:24;;;;;;;22.65;12.93;;;-1.40;36.40;;;;;;5115643;28;20031;-73
2023/04/05 04:14:50;;;;;;;20.50;12.90;;;-1.40;39.00;;;;;;5115500;28;20219;-72
2023/04/05 04:17:33;;;;;;;21.08;13.43;;;-1.40;39.00;;;;;;5115776;28;20030;-73
2023/04/05 04:19:58;;;;;;;19.77;13.00;;;-1.50;40.40;;;;;;5115838;28;20024;-73
2023/04/05 04:22:25;;;;;;;24.90;14.05;;;-1.50;41.90;;;;;;5115783;28;20058;-73
2023/04/05 04:24:52;;;;;;;22.75;13.90;;;-1.60;45.80;;;;;;5115200;28;20435;-73
2023/04/05 04:27:19;;;;;;;23.08;13.85;;;-1.50;44.10;;;;;;5114589;28;20035;-73
2023/04/05 04:29:46;;;;;;;24.00;13.35;;;-1.50;46.50;;;;;;5115398;28;20032;-73
2023/04/05 04:32:15;;;;;;;25.80;14.45;;;-1.50;49.00;;;;;;5115443;28;20039;-73
2023/04/05 04:34:45;;;;;;;23.73;13.93;;;-1.60;50.40;;;;;;5115466;28;20055;-73
2023/04/05 04:37:17;;;;;;;25.67;14.45;;;-1.60;51.60;;;;;;5114966;28;20031;-73
2023/04/05 04:39:46;;;;;;;23.30;13.75;;;-1.60;52.00;;;;;;5115143;28;20110;-73
2023/04/05 04:42:11;;;;;;;27.50;14.68;;;-1.60;55.20;;;;;;5114569;28;20034;-73
2023/04/05 04:44:38;;;;;;;27.30;14.52;;;-1.60;58.60;;;;;;5114658;28;20028;-73
2023/04/05 04:47:11;;;;;;;23.35;14.23;;;-1.60;62.60;;;;;;5114833;28;20081;-73
2023/04/05 04:49:39;;;;;;;22.65;14.27;;;-1.60;64.00;;;;;;5114732;28;20024;-73
2023/04/05 04:52:05;;;;;;;25.92;14.07;;;-1.60;66.90;;;;;;5114662;28;20063;-73
2023/04/05 04:54:32;;;;;;;23.17;13.55;;;-1.60;68.20;;;;;;5114902;28;20491;-73
2023/04/05 04:56:58;;;;;;;27.33;13.93;;;-1.60;72.60;;;;;;5114971;28;20371;-73
2023/04/05 04:59:24;;;;;;;24.83;14.90;;;-1.60;76.00;;;;;;5114526;28;20111;-73
2023/04/05 05:01:50;;;;;;;28.40;15.38;;;-1.60;79.40;;;;;;5114342;28;20032;-73
2023/04/05 05:04:15;;;;;;;25.10;14.80;;;-1.60;83.30;;;;;;5114541;28;20039;-73
2023/04/05 05:06:41;;;;;;;24.60;13.93;;;-1.60;87.60;;;;;;5114615;28;20028;-73
2023/04/05 05:09:06;;;;;;;24.15;15.32;;;-1.50;88.70;;;;;;5114110;28;20047;-73
2023/04/05 05:11:32;;;;;;;23.92;14.45;;;-1.50;89.90;;;;;;5114518;28;20110;-74
2023/04/05 05:13:58;;;;;;;27.83;15.63;;;-1.50;90.20;;;;;;5114710;28;20452;-73
2023/04/05 05:16:23;;;;;;;33.00;17.15;;;-1.30;93.10;;;;;;5114139;28;20106;-73
2023/04/05 05:18:50;;;;;;;28.08;16.48;;;-1.10;95.80;;;;;;5114855;28;20104;-73
2023/04/05 05:21:15;;;;;;;29.58;17.00;;;-0.90;97.00;;;;;;5114209;28;20034;-74
2023/04/05 05:23:41;;;;;;;26.40;16.00;;;-0.60;96.20;;;;;;5114584;28;20031;-73
2023/04/05 05:26:06;;;;;;;26.88;15.90;;;-0.20;96.90;;;;;;5114416;28;20076;-73
2023/04/05 05:28:32;;;;;;;27.92;15.98;;;0.10;92.80;;;;;;5114805;28;20066;-74
2023/04/05 05:30:57;;;;;;;27.80;15.88;;;0.40;81.20;;;;;;5114245;28;20028;-74
2023/04/05 05:33:24;;;;;;;26.20;15.23;;;0.70;68.70;;;;;;5113842;28;20031;-74
2023/04/05 05:35:50;;;;;;;27.25;15.80;;;0.80;43.00;;;;;;5093986;28;20044;-74
2023/04/05 05:38:16;;;;;;;24.08;15.25;;;1.00;26.40;;;;;;5093610;28;20035;-74
2023/04/05 05:40:41;;;;;;;23.67;14.90;;;1.20;20.00;;;;;;5094077;28;20457;-74
2023/04/05 05:43:09;;;;;;;21.38;14.15;;;1.40;1.00;;;;;;5093911;28;20080;-74
2023/04/05 05:45:35;;;;;;;22.67;13.18;;;1.60;1.00;;;;;;5093703;28;20497;-74
2023/04/05 05:48:00;;;;;;;19.15;13.13;;;2.00;1.00;;;;;;5093684;28;20043;-74
2023/04/05 05:50:26;;;;;;;19.17;13.18;;;2.70;1.00;;;;;;5093851;28;20020;-74
2023/04/05 05:52:52;;;;;;;17.55;11.40;;;3.90;1.00;;;;;;5094422;28;20339;-74
2023/04/05 05:55:17;;;;;;;18.00;11.70;;;5.00;99.90;;;;;;5094069;28;20035;-74
2023/04/05 05:57:45;;;;;;;17.35;11.20;;;;;;;;;;5093653;28;20047;-74
2023/04/05 06:00:11;;;;;;;16.50;10.52;;;7.60;1.00;;;;;;5093208;28;20103;-74
2023/04/05 06:02:36;;;;;;;17.42;10.85;;;8.50;1.00;;;;;;5093043;28;20123;-74
2023/04/05 06:05:02;;;;;;;16.40;10.13;;;9.30;99.90;;;;;;5093411;28;20103;-74
2023/04/05 06:07:28;;;;;;;13.77;9.40;;;9.70;1.00;;;;;;5093678;28;20028;-75
2023/04/05 06:09:53;;;;;;;14.25;9.48;;;10.20;99.90;;;;;;5094021;28;20070;-75
2023/04/05 06:12:20;;;;;;;14.63;9.10;;;10.30;99.90;;;;;;5094033;28;20020;-75
2023/04/05 06:14:46;;;;;;;13.95;8.77;;;10.30;99.90;;;;;;5097495;28;20457;-75
2023/04/05 06:17:11;;;;;;;13.75;8.52;;;10.40;99.90;;;;;;5097679;28;20037;-72
2023/04/05 06:19:37;;;;;;;12.73;9.48;;;11.40;90.00;;;;;;5097296;28;20118;-72
2023/04/05 06:22:03;;;;;;;9.10;8.00;;;11.20;1.00;;;;;;5097407;28;20023;-73
2023/04/05 06:24:30;;;;;;;14.50;8.50;;;10.80;25.20;;;;;;5097309;28;20031;-73
2023/04/05 06:26:57;;;;;;;10.02;7.88;;;10.90;1.00;;;;;;5096568;28;20040;-73
2023/04/05 06:29:23;;;;;;;12.20;8.18;;;11.10;1.00;;;;;;5096935;28;20028;-73
2023/04/05 06:31:48;;;;;;;12.13;8.48;;;11.30;1.00;;;;;;5096668;28;20484;-73
2023/04/05 06:34:14;;;;;;;12.85;7.95;;;11.90;1.00;;;;;;5096930;28;20020;-72
2023/04/05 06:36:39;;;;;;;10.48;8.45;;;12.20;1.00;;;;;;5092431;28;20397;-72
2023/04/05 06:39:05;;;;;;;11.23;7.68;;;12.40;1.00;;;;;;5094674;28;20035;-72
2023/04/05 06:41:31;;;;;;;9.30;7.90;;;12.60;1.00;;;;;;5095671;28;20032;-72
2023/04/05 06:43:56;;;;;;;13.63;8.10;;;13.70;99.90;;;;;;5096287;28;20081;-73
2023/04/05 06:46:22;;;;;;;15.82;8.43;;;12.80;99.90;;;;;;5096061;28;20100;-73
2023/04/05 06:48:49;;;;;;;14.57;8.38;;;13.80;99.90;;;;;;5096537;28;20488;-72
2023/04/05 06:51:14;;;;;;;9.35;7.90;;;14.10;99.90;;;;;;5076126;28;20032;-73
2023/04/05 06:53:40;;;;;;;11.55;8.27;;;13.40;99.90;;;;;;5095332;28;20035;-73
2023/04/05 06:56:06;;;;;;;10.30;7.75;;;;;;;;;;5095835;28;20370;-73
2023/04/05 06:58:32;;;;;;;9.00;7.72;;;14.00;99.90;;;;;;5078610;28;20028;-72
2023/04/05 07:00:59;;;;;;;12.38;7.50;;;13.00;99.90;;;;;;5096570;28;20030;-73
2023/04/05 07:03:25;;;;;;;10.80;7.72;;;13.00;99.90;;;;;;5077940;28;20434;-73
2023/04/05 07:05:55;;;;;;;10.65;8.02;;;13.20;99.90;;;;;;5095002;28;20032;-71
2023/04/05 07:08:22;;;;;;;12.25;8.15;;;13.10;99.90;;;;;;5068158;28;20486;-72
2023/04/05 07:10:48;;;;;;;10.43;7.97;;;13.00;99.90;;;;;;5088203;28;20031;-73
2023/04/05 07:13:15;;;;;;;9.40;7.50;;;12.70;99.90;;;;;;5093593;28;20047;-72
2023/04/05 07:15:41;;;;;;;11.25;8.85;;;13.40;99.90;;;;;;5076710;28;20067;-72
2023/04/05 07:18:07;;;;;;;13.35;8.20;;;13.70;99.90;;;;;;5074873;28;20457;-72
2023/04/05 07:20:33;;;;;;;11.68;8.07;;;13.50;99.90;;;;;;5091911;28;20135;-72
2023/04/05 07:22:58;;;;;;;9.35;7.88;;;13.30;99.90;;;;;;5087591;28;20069;-71
2023/04/05 07:25:24;;;;;;;10.88;8.15;;;12.80;99.90;;;;;;5087064;28;20394;-71
2023/04/05 07:27:49;;;;;;;10.85;7.53;;;13.30;99.90;;;;;;5090156;28;20056;-72
2023/04/05 07:30:15;;;;;;;12.65;8.25;;;13.60;99.90;;;;;;5090136;28;20025;-72
2023/04/05 07:32:40;;;;;;;12.20;8.38;;;13.60;99.90;;;;;;5094315;28;20035;-72
2023/04/05 07:35:07;;;;;;;13.75;7.60;;;12.90;99.90;;;;;;5078816;28;20398;-72
2023/04/05 07:37:32;;;;;;;11.45;7.90;;;13.30;99.90;;;;;;5074342;28;20036;-68
2023/04/05 07:39:58;;;;;;;14.38;7.95;;;12.80;99.90;;;;;;5074875;28;20032;-71
2023/04/05 07:42:24;;;;;;;11.05;7.35;;;14.30;99.90;;;;;;5076798;28;20708;-71
2023/04/05 07:44:50;;;;;;;10.75;7.80;;;14.30;99.90;;;;;;5072408;28;20040;-71
2023/04/05 07:47:15;;;;;;;14.02;7.20;;;14.60;99.90;;;;;;5080659;28;20085;-72
2023/04/05 07:49:41;;;;;;;12.50;7.88;;;15.70;99.90;;;;;;5099834;28;20027;-72
2023/04/05 07:52:07;;;;;;;8.15;6.90;;;14.10;99.90;;;;;;5106079;28;20035;-72
2023/04/05 07:54:32;;;;;;;10.27;8.02;;;12.80;99.90;;;;;;5095710;28;20027;-72
2023/04/05 07:56:59;;;;;;;12.95;8.13;;;13.20;99.90;;;;;;5092354;28;20077;-72
2023/04/05 07:59:25;;;;;;;10.05;6.68;;;14.50;99.90;;;;;;5080282;28;20039;-71
2023/04/05 08:01:51;;;;;;;11.20;7.30;;;14.10;99.90;;;;;;5086867;28;20114;-71
2023/04/05 08:04:18;;;;;;;11.88;6.80;;;13.80;99.90;;;;;;5083381;28;20040;-71
2023/04/05 08:06:44;;;;;;;11.10;7.57;;;13.50;99.90;;;;;;5081730;28;20493;-71
2023/04/05 08:09:10;;;;;;;13.27;8.00;;;13.10;99.90;;;;;;5067215;28;20059;-71
2023/04/05 08:11:36;;;;;;;11.82;8.00;;;13.10;99.90;;;;;;5091383;28;20034;-71
2023/04/05 08:14:01;;;;;;;13.55;7.32;;;13.10;99.90;;;;;;5081338;28;20035;-71
2023/04/05 08:16:27;;;;;;;12.18;6.63;;;13.70;99.90;;;;;;5081887;28;20039;-71
2023/04/05 08:18:52;;;;;;;11.88;6.95;;;14.40;99.90;;;;;;5071276;28;20040;-69
2023/04/05 08:21:18;;;;;;;9.18;6.75;;;15.20;99.90;;;;;;5088025;28;20020;-71
2023/04/05 08:23:43;;;;;;;11.00;7.30;;;15.70;99.90;;;;;;5075545;28;20390;-72
2023/04/05 08:26:09;;;;;;;10.52;6.85;;;15.10;99.90;;;;;;5085793;28;20094;-71
2023/04/05 08:28:35;;;;;;;9.27;5.93;;;14.50;99.90;;;;;;5074761;28;20488;-71
2023/04/05 08:31:00;;;;;;;7.05;6.28;;;13.20;99.90;;;;;;5088706;28;20043;-68
2023/04/05 08:33:29;;;;;;;7.90;7.03;;;14.10;99.90;;;;;;5093273;28;20422;-71
2023/04/05 08:35:55;;;;;;;8.63;6.78;;;15.00;99.90;;;;;;5090838;28;20495;-71
2023/04/05 08:38:21;;;;;;;9.93;6.80;;;16.20;99.90;;;;;;5094552;28;20461;-72
2023/04/05 08:40:47;;;;;;;11.98;7.43;;;15.60;99.90;;;;;;5092867;28;20081;-71
2023/04/05 08:43:24;;;;;;;10.40;6.93;;;14.90;99.90;;;;;;5092788;28;20461;-71
2023/04/05 08:45:51;;;;;;;9.02;7.20;;;13.60;99.90;;;;;;5065889;28;20042;-70
2023/04/05 08:48:18;;;;;;;11.13;7.35;;;13.10;99.90;;;;;;5083153;28;20024;-71
2023/04/05 08:50:51;;;;;;;10.82;6.97;;;14.50;99.90;;;;;;5057177;28;20063;-72
2023/04/05 08:53:17;;;;;;;8.40;6.97;;;14.30;99.90;;;;;;5056207;28;20021;-71
2023/04/05 08:55:45;;;;;;;11.68;7.25;;;14.10;99.90;;;;;;5088408;28;20016;-72
2023/04/05 08:58:13;;;;;;;9.13;6.40;;;14.10;99.90;;;;;;5089835;28;20461;-72
2023/04/05 09:00:40;;;;;;;9.45;6.85;;;14.70;99.90;;;;;;5080098;28;20036;-70
2023/04/05 09:03:07;;;;;;;9.82;6.68;;;13.90;99.90;;;;;;5074465;28;20515;-70
2023/04/05 09:05:35;;;;;;;8.43;5.90;;;14.40;99.90;;;;;;5076312;28;20028;-70
2023/04/05 09:08:01;;;;;;;7.47;6.63;;;15.10;99.90;;;;;;5081850;28;20028;-71
2023/04/05 09:10:28;;;;;;;11.70;6.68;;;15.70;99.90;;;;;;5081965;28;20072;-71
2023/04/05 09:12:54;;;;;;;10.30;6.00;;;15.30;99.90;;;;;;5093366;28;20072;-71
2023/04/05 09:15:23;;;;;;;7.43;6.00;;;16.10;99.90;;;;;;5079294;28;20031;-71
2023/04/05 09:17:49;;;;;;;13.27;6.47;;;14.80;99.90;;;;;;5081177;28;20115;-71
2023/04/05 09:20:15;;;;;;;10.18;6.65;;;15.70;99.90;;;;;;5081742;28;20036;-71
2023/04/05 09:22:44;;;;;;;10.15;6.18;;;16.20;99.90;;;;;;5085248;28;20036;-71
2023/04/05 09:25:10;;;;;;;6.82;5.63;;;16.40;99.90;;;;;;5076697;28;20389;-71
2023/04/05 09:27:52;;;;;;;6.53;5.50;;;15.40;99.90;;;;;;5087252;28;20044;-71
2023/04/05 09:30:22;;;;;;;11.45;6.13;;;14.80;99.90;;;;;;5084112;28;20393;-71
2023/04/05 09:32:51;;;;;;;8.02;6.32;;;13.80;99.90;;;;;;5082105;28;20032;-71
2023/04/05 09:35:20;;;;;;;8.00;6.07;;;13.60;99.90;;;;;;5079195;28;20027;-71
2023/04/05 09:37:54;;;;;;;11.35;4.93;;;14.50;99.90;;;;;;5087977;28;20028;-71
2023/04/05 09:40:20;;;;;;;6.55;4.78;;;14.80;99.90;;;;;;5068093;28;20028;-69
2023/04/05 09:42:46;;;;;;;8.02;4.82;;;15.60;99.90;;;;;;5081187;28;20024;-70
2023/04/05 09:45:13;;;;;;;7.68;5.70;;;15.50;99.90;;;;;;5075564;28;20034;-68
2023/04/05 09:47:40;;;;;;;8.00;5.10;;;14.80;99.90;;;;;;5081284;28;20028;-70
2023/04/05 09:50:18;;;;;;;5.32;4.68;;;14.10;99.90;;;;;;5080393;28;20384;-70
2023/04/05 09:52:44;;;;;;;6.30;4.45;;;14.10;99.90;;;;;;5083465;28;20075;-70
2023/04/05 09:55:10;;;;;;;7.53;5.00;;;15.00;99.90;;;;;;5083820;28;20126;-71
2023/04/05 09:57:38;;;;;;;7.40;5.03;;;15.00;99.90;;;;;;5085127;28;20032;-70
2023/04/05 10:00:05;;;;;;;9.73;5.38;;;16.10;99.90;;;;;;5081237;28;20027;-71
2023/04/05 10:02:38;;;;;;;9.18;5.95;;;14.70;99.90;;;;;;5088383;28;20063;-71
2023/04/05 10:05:06;;;;;;;;;;;14.30;99.90;;;;;;5084236;28;20041;-71
2023/04/05 10:07:32;;;;;;;7.38;5.20;;;14.40;99.90;;;;;;5082790;28;20354;-70
2023/04/05 10:09:58;;;;;;;9.05;4.90;;;14.40;99.90;;;;;;5087360;28;20036;-70
2023/04/05 10:12:25;;;;;;;9.90;6.00;;;14.40;99.90;;;;;;5096852;28;20043;-72
2023/04/05 10:14:51;;;;;;;8.38;5.63;;;14.00;99.90;;;;;;5069228;28;20111;-71
2023/04/05 10:17:25;;;;;;;10.35;6.90;;;14.50;99.90;;;;;;5090689;28;20032;-71
2023/04/05 10:20:15;;;;;;;8.50;5.35;;;15.10;99.90;;;;;;5081961;28;20039;-70
2023/04/05 10:22:56;;;;;;;7.03;5.07;;;14.80;99.90;;;;;;5086875;28;20477;-69
2023/04/05 10:25:33;;;;;;;8.35;5.10;;;14.90;99.90;;;;;;5094752;28;20032;-70
2023/04/05 10:28:05;;;;;;;6.32;4.80;;;15.50;99.90;;;;;;5087336;28;20048;-71
2023/04/05 10:30:36;;;;;;;5.97;4.57;;;15.40;99.90;;;;;;5093990;28;20366;-71
2023/04/05 10:33:11;;;;;;;6.15;4.80;;;15.30;99.90;;;;;;5074518;28;20073;-70
2023/04/05 10:36:02;;;;;;;8.18;4.72;;;14.30;99.90;;;;;;5079684;28;20481;-70
2023/04/05 10:38:34;;;;;;;5.63;4.72;;;14.80;99.90;;;;;;5091043;28;20524;-70
2023/04/05 10:41:11;;;;;;;8.25;5.70;;;14.50;99.90;;;;;;5067738;28;20112;-70
2023/04/05 10:43:39;;;;;;;6.82;5.40;;;14.90;99.90;;;;;;5084730;28;20029;-70
2023/04/05 10:46:06;;;;;;;7.28;5.15;;;14.60;1.00;;;;;;5083156;28;20032;-69
2023/04/05 10:48:41;;;;;;;8.98;5.55;;;14.30;99.90;;;;;;5088033;28;20478;-72
2023/04/05 10:51:07;;;;;;;7.63;5.20;;;14.70;99.90;;;;;;5079935;28;20086;-70
2023/04/05 10:53:36;;;;;;;9.05;5.45;;;14.80;99.90;;;;;;5082499;28;20028;-68
2023/04/05 10:56:02;;;;;;;8.25;5.93;;;15.10;99.90;;;;;;5091984;28;20560;-69
2023/04/05 10:58:29;;;;;;;7.72;5.38;;;14.90;99.90;;;;;;5081234;28;20023;-70
2023/04/05 11:00:56;;;;;;;6.85;5.50;;;15.10;99.90;;;;;;5081920;28;20032;-69
2023/04/05 11:03:40;;;;;;;10.20;5.65;;;14.70;99.90;;;;;;5080304;28;20039;-69
2023/04/05 11:09:11;;;;;;;9.32;5.53;;;14.70;1.00;;;;;;5048928;28;20929;-68
2023/04/05 11:11:39;;;;;;;9.35;5.97;;;14.60;1.00;;;;;;5046047;28;20104;-69
2023/04/05 11:14:24;;;;;;;8.00;5.38;;;13.60;1.00;;;;;;5035918;28;20029;-68
2023/04/05 11:16:53;;;;;;;8.75;6.45;;;13.30;1.00;;;;;;5034580;28;20520;-71
2023/04/05 11:19:19;;;;;;;11.27;5.93;;;13.40;1.00;;;;;;5036346;28;20045;-70
2023/04/05 11:21:45;;;;;;;8.43;6.63;;;12.80;1.00;;;;;;5035603;28;20036;-70
2023/04/05 11:24:14;;;;;;;8.38;5.95;;;13.10;1.00;;;;;;5044353;28;20061;-70
2023/04/05 11:29:38;;;;;;;9.57;5.90;;;13.10;1.00;;;;;;5083907;28;20350;-70
2023/04/05 11:32:11;;;;;;;9.70;6.85;;;12.90;1.00;;;;;;5062855;28;20071;-70
2023/04/05 11:34:37;;;;;;;8.18;6.53;;;12.30;1.00;;;;;;5069002;28;20062;-71
2023/04/05 11:37:02;;;;;;;8.57;6.43;;;12.40;1.00;;;;;;5059417;28;20029;-69
2023/04/05 11:39:28;;;;;;;9.70;6.07;;;12.80;1.00;;;;;;5052216;28;20390;-68
2023/04/05 11:42:06;;;;;;;11.45;7.00;;;13.10;1.00;;;;;;5054112;28;20423;-69
2023/04/05 11:44:51;;;;;;;11.43;7.28;;;12.80;1.00;;;;;;5054030;28;20434;-70
2023/04/05 11:47:20;;;;;;;10.10;6.72;;;13.00;1.00;;;;;;5068170;28;20087;-70
2023/04/05 11:49:49;;;;;;;12.00;7.20;;;12.40;1.00;;;;;;5057714;28;20021;-70
2023/04/05 11:52:17;;;;;;;11.30;7.30;;;12.10;1.00;;;;;;5068493;28;20025;-70
2023/04/05 11:54:45;;;;;;;8.88;6.28;;;11.60;1.00;;;;;;5056951;28;20024;-69
2023/04/05 11:57:13;;;;;;;11.75;7.32;;;11.90;1.00;;;;;;5069437;28;20025;-70
2023/04/05 11:59:39;;;;;;;10.88;7.03;;;12.20;1.00;;;;;;5055085;28;20120;-70
2023/04/05 12:02:07;;;;;;;8.70;6.97;;;12.60;1.00;;;;;;5055307;28;20113;-70
2023/04/05 12:04:33;;;;;;;9.40;6.85;;;12.10;1.00;;;;;;5067593;28;20115;-70
2023/04/05 12:07:16;;;;;;;10.45;6.93;;;12.20;1.00;;;;;;5069853;28;20439;-70
2023/04/05 12:10:03;;;;;;;10.35;6.90;;;12.00;1.00;;;;;;5072691;28;20074;-70
2023/04/05 12:12:34;;;;;;;12.80;7.30;;;12.10;1.00;;;;;;5065687;28;20120;-70
2023/04/05 12:15:01;;;;;;;9.23;6.72;;;12.00;1.00;;;;;;5050429;28;20040;-70
2023/04/05 12:17:48;;;;;;;8.73;6.65;;;12.00;1.00;;;;;;5064671;28;20029;-67
2023/04/05 12:20:18;;;;;;;14.18;7.32;;;11.90;1.00;;;;;;5052182;28;20025;-69
2023/04/05 12:22:47;;;;;;;9.25;6.68;;;12.20;1.00;;;;;;5054310;28;20076;-67
2023/04/05 12:25:13;;;;;;;9.77;7.15;;;12.30;1.00;;;;;;5052131;28;20489;-71
2023/04/05 12:27:40;;;;;;;12.27;7.00;;;12.30;1.00;;;;;;5049476;28;20486;-70
2023/04/05 12:30:15;;;;;;;11.35;7.43;;;12.60;1.00;;;;;;5053912;28;20060;-70
2023/04/05 12:32:46;;;;;;;8.93;6.88;;;12.80;1.00;;;;;;5061296;28;20385;-70
2023/04/05 12:35:16;;;;;;;10.80;7.05;;;12.90;99.90;;;;;;5050235;28;20029;-69
2023/04/05 12:37:41;;;;;;;11.25;7.20;;;12.70;99.90;;;;;;5065325;28;20519;-70
2023/04/05 12:40:08;;;;;;;11.27;6.90;;;12.50;99.90;;;;;;5063556;28;20037;-70
2023/04/05 12:42:35;;;;;;;8.98;7.30;;;12.40;99.90;;;;;;5038938;28;20509;-70
2023/04/05 12:45:04;;;;;;;10.77;7.05;;;12.30;99.90;;;;;;5039449;28;20029;-70
2023/04/05 12:47:31;;;;;;;11.65;7.25;;;12.10;99.90;;;;;;5050990;28;20026;-71
2023/04/05 12:49:57;;;;;;;12.50;7.85;;;11.90;99.90;;;;;;5047458;28;20122;-70
2023/04/05 12:52:26;;;;;;;11.82;7.40;;;11.90;99.90;;;;;;5039031;28;20074;-67
2023/04/05 12:54:54;;;;;;;11.20;7.63;;;12.10;99.90;;;;;;5042990;28;20113;-69